Data for 10/28/2008

Time Sea-Level Adjusted Pressure Absolute Pressure Temperature Relative Humidity Dew Point   
(mb) (inHg) (mb) (inHg) (C) (F) (%) (C) (F)
00:05 1029 30.39 858 25.34 6.2 43.2 38 -7.1 19.1
00:10 1029 30.39 858 25.34 5.7 42.2 36 -8.1 17.4
00:15 1029 30.39 858 25.34 6 42.9 35 -8.4 16.8
00:20 1029 30.39 858 25.34 6.7 44.1 33 -8.6 16.5
00:25 1029 30.39 858 25.34 7.1 44.8 32 -8.4 16.9
00:30 1029 30.39 858 25.34 7.6 45.6 33 -7.9 17.9
00:35 1029 30.39 858 25.34 7.5 45.6 34 -7.5 18.5
00:40 1029 30.39 858 25.34 6.9 44.5 35 -7.3 18.8
00:45 1029 30.39 858 25.34 6.2 43.2 38 -7 19.4
00:50 1029 30.39 858 25.34 6.2 43.2 35 -8 17.6
00:55 1029 30.39 858 25.34 7 44.5 33 -8.4 16.9
01:00 1029 30.39 858 25.34 7.2 44.9 34 -7.8 17.9
01:05 1029 30.39 858 25.34 6.9 44.4 35 -7.7 18.2
01:10 1029 30.39 858 25.34 7.1 44.7 32 -8.5 16.6
01:15 1029 30.39 858 25.34 7.6 45.7 31 -8.6 16.5
01:20 1029 30.39 858 25.34 7.9 46.1 32 -8 17.6
01:25 1029 30.39 858 25.34 7.7 45.8 32 -7.8 17.9
01:30 1029 30.39 858 25.34 7.3 45.2 34 -7.6 18.3
01:35 1029 30.39 858 25.34 6.8 44.3 33 -8.2 17.2
01:40 1029 30.39 858 25.34 6.8 44.2 33 -8.2 17.2
01:45 1029 30.39 858 25.34 6.9 44.4 33 -8.3 17.1
01:50 1029 30.39 858 25.34 6.7 44.1 36 -7.3 18.9
01:55 1029 30.39 858 25.34 6.2 43.1 37 -7.5 18.6
02:00 1029 30.39 858 25.34 6.1 43 36 -8 17.6
02:05 1029 30.39 858 25.34 6.2 43.1 36 -7.9 17.8
02:10 1029 30.39 858 25.34 6.1 43 36 -7.8 18
02:15 1029 30.39 858 25.34 6.2 43.1 36 -7.8 17.9
02:20 1029 30.39 858 25.34 6.4 43.6 36 -7.6 18.4
02:25 1029 30.39 858 25.34 6.1 43 37 -7.5 18.5
02:30 1029 30.39 858 25.34 6.3 43.3 36 -7.8 17.9
02:35 1029 30.39 858 25.34 6.5 43.7 36 -7.6 18.3
02:40 1029 30.39 858 25.34 6.8 44.3 34 -7.9 17.8
02:45 1029 30.39 858 25.34 7.1 44.8 36 -6.9 19.5
02:50 1029 30.39 858 25.34 7 44.6 33 -8.2 17.2
02:55 1029 30.39 858 25.34 7.8 46 35 -6.6 20.1
03:00 1029 30.39 858 25.34 7.2 45 40 -5.3 22.4
03:05 1029 30.39 858 25.34 6 42.7 43 -5.6 21.9
03:10 1029 30.39 858 25.34 5.6 42.1 41 -6.5 20.2
03:15 1029 30.39 858 25.34 6.2 43.1 39 -6.7 20
03:20 1029 30.39 858 25.34 6.4 43.6 39 -6.4 20.5
03:25 1029 30.39 858 25.34 6.3 43.3 40 -6.3 20.7
03:30 1029 30.39 858 25.34 6.4 43.6 38 -6.9 19.6
03:35 1029 30.39 858 25.34 6.7 44 37 -7 19.4
03:40 1029 30.39 858 25.34 6.8 44.3 36 -7.2 19.1
03:45 1029 30.39 858 25.34 6.1 42.9 40 -6.5 20.4
03:50 1029 30.39 858 25.34 5.3 41.5 40 -7.2 19.1
03:55 1029 30.39 858 25.34 5.4 41.8 41 -6.9 19.6
04:00 1029 30.39 858 25.34 5.3 41.6 41 -7 19.4
04:05 1029 30.39 858 25.34 5.4 41.8 40 -7.1 19.3
04:10 1029 30.39 858 25.34 5.4 41.7 41 -7 19.5
04:15 1029 30.39 858 25.34 5 41.1 43 -6.6 20
04:20 1029 30.39 858 25.34 4.9 40.8 42 -7 19.5
04:25 1029 30.39 858 25.34 5.1 41.3 40 -7.3 18.8
04:30 1029 30.39 858 25.34 5.2 41.4 41 -7.1 19.3
04:35 1029 30.39 858 25.34 5.4 41.6 41 -6.9 19.5
04:40 1029 30.39 858 25.34 5.3 41.6 40 -7.1 19.3
04:45 1029 30.39 858 25.34 5.5 42 40 -7.1 19.2
04:50 1029 30.39 858 25.34 5.8 42.4 40 -6.9 19.5
04:55 1029 30.39 858 25.34 5.7 42.2 39 -7.3 18.8
05:00 1029 30.39 858 25.34 6 42.8 38 -7.1 19.2
05:05 1029 30.39 858 25.34 6.2 43.1 37 -7.6 18.3
05:10 1029 30.39 858 25.34 6.5 43.6 37 -7.2 19.1
05:15 1029 30.39 858 25.34 6.1 43 39 -6.8 19.7
05:20 1029 30.39 858 25.34 5.8 42.4 40 -6.6 20.1
05:25 1029 30.39 858 25.34 5.7 42.2 40 -6.9 19.6
05:30 1029 30.39 858 25.34 5.7 42.3 39 -7 19.4
05:35 1029 30.39 858 25.34 5.6 42.1 41 -6.6 20
05:40 1029 30.39 858 25.34 5.3 41.6 41 -6.8 19.8
05:45 1029 30.39 858 25.34 5.2 41.3 42 -6.8 19.8
05:50 1029 30.39 858 25.34 5.3 41.5 42 -6.8 19.8
05:55 1029 30.39 858 25.34 5.2 41.4 42 -6.6 20.1
06:00 1029 30.39 858 25.34 5 41 42 -6.8 19.8
06:05 1029 30.39 858 25.34 5 40.9 42 -6.8 19.8
06:10 1029 30.39 858 25.34 4.9 40.9 43 -6.8 19.8
06:15 1029 30.39 858 25.34 4.8 40.7 42 -7 19.4
06:20 1029 30.39 858 25.34 5 41 42 -6.9 19.5
06:25 1029 30.39 858 25.34 5.2 41.3 40 -7.2 19
06:30 1029 30.39 858 25.34 5.3 41.6 41 -7 19.3
06:35 1029 30.39 858 25.34 5.4 41.8 41 -6.9 19.6
06:40 1029 30.39 858 25.34 5.3 41.5 42 -6.7 19.9
06:45 1029 30.39 858 25.34 5.1 41.2 43 -6.6 20.2
06:50 1029 30.39 858 25.34 4.9 40.8 42 -6.9 19.6
06:55 1029 30.39 858 25.34 5 41.1 42 -6.7 19.9
07:00 1029 30.39 858 25.34 5.3 41.6 42 -6.7 19.9
07:05 1029 30.39 858 25.34 5.4 41.8 41 -6.7 19.9
07:10 1029 30.39 858 25.34 5.6 42 40 -7 19.4
07:15 1029 30.39 858 25.34 5.8 42.4 40 -6.9 19.5
07:20 1029 30.39 858 25.34 5.9 42.6 41 -6.4 20.5
07:25 1029 30.39 858 25.34 6 42.8 40 -6.5 20.2
07:30 1029 30.39 858 25.34 6.1 43.1 39 -6.8 19.7
07:35 1029 30.39 858 25.34 6 42.7 45 -5 23.1
07:40 1029 30.39 858 25.34 5.6 42.1 43 -6 21.1
07:45 1029 30.39 858 25.34 5.9 42.7 41 -6.2 20.9
07:50 1029 30.39 858 25.34 6 42.8 39 -6.8 19.7
07:55 1029 30.39 858 25.34 6.1 43 41 -6.2 20.8
08:00 1029 30.39 858 25.34 5.9 42.6 42 -6 21.2
08:05 1029 30.39 858 25.34 5.6 42.1 43 -6.1 21
08:10 1029 30.39 858 25.34 5.1 41.2 43 -6.6 20.1
08:15 1029 30.39 858 25.34 5.1 41.2 42 -6.7 19.9
08:20 1029 30.39 858 25.34 5.1 41.3 42 -6.7 20
08:25 1029 30.39 858 25.34 5.3 41.5 42 -6.7 20
08:30 1029 30.39 858 25.34 5.3 41.6 41 -6.9 19.6
08:35 1029 30.39 858 25.34 5.5 41.9 41 -6.9 19.7
08:40 1029 30.39 858 25.34 5.9 42.6 41 -6.5 20.3
08:45 1029 30.39 858 25.34 6 42.8 40 -6.5 20.3
08:50 1029 30.39 858 25.34 6.1 43 39 -6.9 19.6
08:55 1029 30.39 858 25.34 6.4 43.6 38 -6.7 19.9
09:00 1029 30.39 858 25.34 6.7 44 39 -6.4 20.5
09:05 1029 30.39 858 25.34 6.8 44.3 39 -6.2 20.8
09:10 1029 30.39 858 25.34 7 44.6 38 -6.2 20.8
09:15 1029 30.39 858 25.34 7.3 45.2 39 -5.9 21.4
09:20 1029 30.39 858 25.34 7.6 45.6 37 -6 21.1
09:25 1029 30.39 859 25.37 8 46.4 35 -6.5 20.4
09:30 1029 30.39 859 25.37 8.6 47.5 34 -6.3 20.7
09:35 1029 30.39 859 25.37 9.4 48.9 33 -6.3 20.7
09:40 1029 30.39 858 25.34 9.9 49.7 32 -6.1 21
09:45 1029 30.39 858 25.34 10.5 51 31 -6 21.1
09:50 1029 30.39 858 25.34 10.6 51.1 31 -5.8 21.5
09:55 1029 30.39 858 25.34 10.6 51.1 30 -6.1 21
10:00 1029 30.39 859 25.37 10.6 51.2 30 -6.2 20.9
10:05 1029 30.39 859 25.37 10.7 51.3 29 -6.6 20.1
10:10 1029 30.39 859 25.37 10.5 51 29 -6.9 19.6
10:15 1029 30.39 859 25.37 10.7 51.2 29 -6.6 20.1
10:20 1029 30.39 859 25.37 10.6 51.1 30 -6.4 20.5
10:25 1029 30.39 859 25.37 10.9 51.6 28 -6.9 19.6
10:30 1029 30.39 859 25.37 11.2 52.1 27 -7.1 19.3
10:35 1029 30.39 859 25.37 11.1 51.9 29 -6.3 20.7
10:40 1029 30.39 859 25.37 10.9 51.7 29 -6.3 20.6
10:45 1029 30.39 859 25.37 11.7 53.1 29 -5.9 21.4
10:50 1029 30.39 859 25.37 11.1 51.9 28 -6.6 20.1
10:55 1029 30.39 859 25.37 10.7 51.3 28 -7.1 19.3
11:00 1029 30.39 859 25.37 11.2 52.2 28 -6.5 20.3
11:05 1029 30.39 859 25.37 11.6 52.8 27 -6.7 20
11:10 1029 30.39 859 25.37 11.3 52.3 27 -6.9 19.6
11:15 1029 30.39 859 25.37 11.9 53.3 27 -6.6 20.2
11:20 1029 30.39 858 25.34 12.3 54.2 25 -7 19.4
11:25 1029 30.39 858 25.34 13.3 55.9 25 -6.2 20.8
11:30 1029 30.39 858 25.34 12.9 55.1 26 -6.3 20.7
11:35 1029 30.39 858 25.34 13.5 56.3 26 -5.5 22.1
11:40 1029 30.39 858 25.34 13.2 55.7 26 -6 21.1
11:45 1029 30.39 858 25.34 13.7 56.6 26 -5.6 21.8
11:50 1029 30.39 858 25.34 13.7 56.7 26 -5.6 21.9
11:55 1029 30.39 858 25.34 13.9 56.9 25 -5.7 21.8
12:00 1029 30.39 858 25.34 13.4 56.2 26 -5.6 21.8
12:05 1029 30.39 858 25.34 13.4 56.1 25 -6.1 21
12:10 1029 30.39 858 25.34 14.1 57.3 24 -5.9 21.3
12:15 1029 30.39 858 25.34 14.9 58.8 23 -6.1 21.1
12:20 1029 30.39 858 25.34 15.6 60.1 22 -5.7 21.8
12:25 1029 30.39 858 25.34 15.9 60.6 23 -5.1 22.8
12:30 1029 30.39 858 25.34 16 60.8 22 -5.9 21.4
12:35 1029 30.39 858 25.34 16.1 61 22 -5.3 22.4
12:40 1029 30.39 858 25.34 16 60.8 22 -5.3 22.4
12:45 1029 30.39 858 25.34 16.4 61.6 22 -5.3 22.5
12:50 1028 30.36 858 25.34 16.3 61.4 22 -5.4 22.3
12:55 1028 30.36 858 25.34 16.5 61.7 22 -5 23
13:00 1028 30.36 858 25.34 16.4 61.5 22 -5.1 22.7
13:05 1028 30.36 858 25.34 17 62.6 22 -4.9 23.2
13:10 1028 30.36 857 25.31 16.7 62 22 -5 22.9
13:15 1028 30.36 857 25.31 16.9 62.5 22 -4.8 23.4
13:20 1028 30.36 857 25.31 17.5 63.5 21 -4.7 23.5
13:25 1028 30.36 857 25.31 17.5 63.5 20 -5.5 22
13:30 1028 30.36 857 25.31 17.9 64.1 20 -5.4 22.3
13:35 1028 30.36 857 25.31 18 64.4 20 -5.2 22.6
13:40 1028 30.36 857 25.31 18.2 64.7 20 -5 23
13:45 1028 30.36 857 25.31 18.3 64.9 20 -5 23.1
13:50 1028 30.36 857 25.31 18.6 65.4 19 -5.1 22.8
13:55 1028 30.36 857 25.31 18.8 65.8 21 -4.1 24.7
14:00 1027 30.33 857 25.31 17.9 64.2 20 -5 23.1
14:05 1027 30.33 857 25.31 18.5 65.4 19 -5.5 22
14:10 1027 30.33 857 25.31 17.9 64.3 21 -4.8 23.3
14:15 1027 30.33 856 25.28 18.2 64.7 20 -5.1 22.9
14:20 1027 30.33 856 25.28 18.1 64.5 20 -5 23.1
14:25 1027 30.33 856 25.28 18.7 65.7 20 -4.8 23.3
14:30 1027 30.33 856 25.28 18.9 66 19 -5 23.1
14:35 1027 30.33 856 25.28 19 66.2 19 -5.1 22.8
14:40 1027 30.33 856 25.28 19.2 66.5 19 -4.7 23.6
14:45 1027 30.33 856 25.28 19.5 67.1 18 -5.1 22.9
14:50 1027 30.33 856 25.28 19.8 67.7 18 -4.8 23.4
14:55 1027 30.33 856 25.28 19.9 67.8 18 -4.7 23.5
15:00 1027 30.33 856 25.28 19.9 67.8 18 -4.9 23.1
15:05 1027 30.33 856 25.28 19.8 67.7 19 -4.4 24.1
15:10 1027 30.33 856 25.28 19.5 67.1 19 -4.8 23.3
15:15 1026 30.3 856 25.28 20.2 68.4 18 -5 22.9
15:20 1026 30.3 856 25.28 20.4 68.7 18 -4.5 24
15:25 1026 30.3 855 25.25 19.5 67 18 -5 23
15:30 1026 30.3 855 25.25 19.8 67.7 18 -4.9 23.2
15:35 1026 30.3 855 25.25 20.3 68.5 18 -4.8 23.3
15:40 1026 30.3 855 25.25 20.2 68.4 19 -3.7 25.3
15:45 1026 30.3 855 25.25 20 67.9 18 -5.2 22.7
15:50 1026 30.3 855 25.25 20.8 69.4 18 -4.4 24.2
15:55 1026 30.3 855 25.25 20.7 69.2 18 -4.3 24.2
16:00 1026 30.3 855 25.25 20.1 68.2 18 -4.7 23.5
16:05 1026 30.3 855 25.25 20.4 68.6 18 -4.6 23.7
16:10 1026 30.3 855 25.25 20.6 69.1 18 -4.4 24
16:15 1026 30.3 855 25.25 20.7 69.3 18 -4.5 23.9
16:20 1026 30.3 855 25.25 20.9 69.6 18 -4.5 23.9
16:25 1026 30.3 855 25.25 21.1 70.1 18 -4.1 24.6
16:30 1026 30.3 855 25.25 20.8 69.4 18 -4.4 24
16:35 1026 30.3 855 25.25 21.2 70.1 17 -4.7 23.6
16:40 1026 30.3 855 25.25 20.2 68.4 19 -4.2 24.5
16:45 1026 30.3 855 25.25 20.1 68.1 18 -4.7 23.5
16:50 1026 30.3 855 25.25 20.2 68.4 19 -4.3 24.2
16:55 1026 30.3 855 25.25 20.3 68.5 19 -4.3 24.3
17:00 1026 30.3 855 25.25 20 67.9 19 -3.9 25
17:05 1026 30.3 855 25.25 19.3 66.8 20 -4.2 24.5
17:10 1026 30.3 855 25.25 19.2 66.5 20 -4.2 24.5
17:15 1026 30.3 855 25.25 18.9 66 21 -4 24.7
17:20 1026 30.3 855 25.25 18.6 65.5 20 -4.4 24.1
17:25 1026 30.3 855 25.25 18.4 65.2 21 -4.3 24.2
17:30 1025 30.27 855 25.25 18.3 65 21 -4.4 24.1
17:35 1025 30.27 855 25.25 18.2 64.7 21 -4.1 24.7
17:40 1025 30.27 855 25.25 18 64.4 21 -4.4 24
17:45 1025 30.27 855 25.25 17.9 64.2 21 -4.3 24.2
17:50 1025 30.27 855 25.25 17.9 64.1 21 -4.5 24
17:55 1025 30.27 855 25.25 17.9 64.3 22 -4.2 24.4
18:00 1025 30.27 854 25.22 17.7 63.9 22 -4.3 24.3
18:05 1025 30.27 854 25.22 17.5 63.4 22 -4.2 24.4
18:10 1025 30.27 854 25.22 17.2 62.9 23 -4 24.9
18:15 1025 30.27 854 25.22 16.9 62.5 26 -2.5 27.5
18:20 1025 30.27 854 25.22 16.1 60.9 30 -1.3 29.7
18:25 1025 30.27 854 25.22 15.8 60.4 31 -1.1 30.1
18:30 1025 30.27 854 25.22 15.3 59.6 33 -0.8 30.6
18:35 1025 30.27 854 25.22 15 58.9 34 -0.8 30.6
18:40 1025 30.27 854 25.22 14.5 58.1 36 -0.3 31.4
18:45 1025 30.27 854 25.22 13.6 56.5 39 -0.1 31.9
18:50 1025 30.27 854 25.22 13 55.4 39 -0.6 30.8
18:55 1025 30.27 854 25.22 13.1 55.6 36 -1.7 29
19:00 1025 30.27 854 25.22 13.1 55.7 38 -0.9 30.3
19:05 1025 30.27 854 25.22 13.3 56 33 -2.5 27.4
19:10 1025 30.27 854 25.22 13.6 56.5 34 -2 28.5
19:15 1025 30.27 854 25.22 13.4 56.2 33 -2.5 27.4
19:20 1025 30.27 854 25.22 13.2 55.8 33 -2.4 27.6
19:25 1025 30.27 854 25.22 13.2 55.7 32 -3 26.6
19:30 1025 30.27 854 25.22 13.7 56.7 31 -3 26.7
19:35 1025 30.27 854 25.22 13.7 56.6 31 -3 26.6
19:40 1025 30.27 854 25.22 13.6 56.5 31 -3 26.6
19:45 1025 30.27 854 25.22 13.2 55.8 34 -2.3 27.8
19:50 1025 30.27 854 25.22 12.5 54.4 34 -2.9 26.8
19:55 1024 30.24 854 25.22 12.8 55 32 -3.4 25.8
20:00 1024 30.24 854 25.22 13.5 56.4 31 -3.4 25.9
20:05 1024 30.24 854 25.22 13.8 56.8 30 -3.3 26.1
20:10 1024 30.24 854 25.22 13.6 56.6 31 -3.2 26.2
20:15 1024 30.24 854 25.22 13.3 55.9 32 -3 26.7
20:20 1024 30.24 854 25.22 13.4 56.1 30 -3.6 25.5
20:25 1025 30.27 854 25.22 13.5 56.3 31 -3.2 26.2
20:30 1024 30.24 854 25.22 12.9 55.3 32 -3.2 26.3
20:35 1024 30.24 854 25.22 12.7 54.9 31 -3.8 25.1
20:40 1024 30.24 854 25.22 13.3 56 31 -3.4 25.8
20:45 1024 30.24 854 25.22 13.3 56 32 -3.2 26.3
20:50 1024 30.24 854 25.22 13 55.4 32 -3.4 25.9
20:55 1024 30.24 854 25.22 12.7 54.9 33 -3 26.5
21:00 1024 30.24 854 25.22 11.9 53.3 36 -2.7 27.1
21:05 1024 30.24 854 25.22 11.5 52.8 35 -3.4 25.8
21:10 1024 30.24 854 25.22 11.7 53.1 34 -3.5 25.8
21:15 1024 30.24 854 25.22 12.2 53.9 33 -3.7 25.3
21:20 1024 30.24 854 25.22 12.4 54.3 33 -3.2 26.3
21:25 1024 30.24 854 25.22 11.4 52.6 38 -2.3 27.9
21:30 1024 30.24 854 25.22 10.3 50.5 38 -3.4 25.8
21:35 1024 30.24 854 25.22 10.7 51.2 37 -3.4 25.9
21:40 1024 30.24 854 25.22 10.4 50.8 39 -2.8 27
21:45 1024 30.24 854 25.22 10.1 50.3 39 -3.3 26.1
21:50 1024 30.24 854 25.22 10.5 50.9 36 -4 24.8
21:55 1024 30.24 854 25.22 11.4 52.5 35 -3.4 25.9
22:00 1024 30.24 854 25.22 11.4 52.5 35 -3.6 25.5
22:05 1024 30.24 854 25.22 11.4 52.5 35 -3.7 25.4
22:10 1024 30.24 854 25.22 11.2 52.1 37 -3.1 26.5
22:15 1024 30.24 854 25.22 10.4 50.7 37 -3.6 25.5
22:20 1024 30.24 854 25.22 10.7 51.3 37 -3.2 26.2
22:25 1024 30.24 853 25.19 10.4 50.8 38 -3.4 26
22:30 1024 30.24 853 25.19 10.5 50.9 37 -3.4 25.8
22:35 1024 30.24 853 25.19 10.2 50.3 39 -3.1 26.5
22:40 1024 30.24 853 25.19 9.7 49.5 40 -3.1 26.3
22:45 1024 30.24 853 25.19 9.6 49.2 40 -3.2 26.2
22:50 1024 30.24 853 25.19 9.5 49 40 -3.4 25.9
22:55 1024 30.24 853 25.19 9.5 49.2 40 -3.5 25.8
23:00 1024 30.24 853 25.19 9.5 49.2 39 -3.7 25.3
23:05 1024 30.24 853 25.19 10.3 50.6 36 -4 24.8
23:10 1024 30.24 853 25.19 9.7 49.5 39 -3.6 25.6
23:15 1024 30.24 853 25.19 9.1 48.3 40 -3.7 25.3
23:20 1024 30.24 853 25.19 9.2 48.6 38 -4.4 24
23:25 1024 30.24 853 25.19 9.7 49.5 35 -4.8 23.3
23:30 1024 30.24 853 25.19 10.2 50.3 35 -4.6 23.7
23:35 1024 30.24 853 25.19 10.2 50.4 35 -4.4 24
23:40 1024 30.24 853 25.19 10.1 50.3 36 -4.1 24.6
23:45 1024 30.24 853 25.19 10 49.9 37 -4 24.8
23:50 1024 30.24 853 25.19 10 49.9 36 -4.2 24.4
23:55 1024 30.24 853 25.19 9.9 49.9 37 -4.1 24.5
24:00 1024 30.24 853 25.19 9.7 49.4 38 -3.8 25.2